createdAt,value
2023-07-01T00:00:49.907Z,9.661836
2023-07-01T00:01:49.874Z,9.661530
2023-07-01T00:02:49.924Z,9.661530
2023-07-01T00:03:49.934Z,9.661533
2023-07-01T00:04:50.006Z,9.661526
2023-07-01T00:05:49.905Z,9.661810
2023-07-01T00:06:49.855Z,9.661497
2023-07-01T00:07:49.855Z,9.661389
2023-07-01T00:08:49.821Z,9.661521
2023-07-01T00:09:49.848Z,9.661521
2023-07-01T00:10:50.062Z,9.661482
2023-07-01T00:11:49.840Z,9.661461
2023-07-01T00:12:50.601Z,9.661428
2023-07-01T00:13:49.778Z,9.661435
2023-07-01T00:14:49.839Z,9.661448
2023-07-01T00:15:49.835Z,9.661443
2023-07-01T00:16:49.889Z,9.661474
2023-07-01T00:17:49.821Z,9.661489
2023-07-01T00:18:49.813Z,9.661445
2023-07-01T00:19:49.812Z,9.661460
2023-07-01T00:20:49.831Z,9.661469
2023-07-01T00:21:50.769Z,9.661417
2023-07-01T00:22:49.774Z,9.661445
2023-07-01T00:23:49.784Z,9.661405
2023-07-01T00:24:49.779Z,9.661455
2023-07-01T00:25:49.752Z,9.661361
2023-07-01T00:26:49.746Z,9.661327
2023-07-01T00:27:49.714Z,9.661459
2023-07-01T00:28:49.748Z,9.661550
2023-07-01T00:29:49.718Z,9.661563
2023-07-01T00:30:50.267Z,9.661543
2023-07-01T00:31:49.765Z,9.661532
2023-07-01T00:32:49.742Z,9.661530
2023-07-01T00:33:49.704Z,9.661358
2023-07-01T00:34:49.732Z,9.661528
2023-07-01T00:35:49.720Z,9.661610
2023-07-01T00:36:49.714Z,9.661510
2023-07-01T00:37:49.672Z,9.661450
2023-07-01T00:38:49.690Z,9.661490
2023-07-01T00:39:49.719Z,9.661489
2023-07-01T00:40:50.135Z,9.661563
2023-07-01T00:41:49.641Z,9.661581
2023-07-01T00:42:49.668Z,9.661648
2023-07-01T00:43:49.662Z,9.661562
2023-07-01T00:44:49.680Z,9.661629
2023-07-01T00:45:49.695Z,9.661463
2023-07-01T00:46:49.651Z,9.661491
2023-07-01T00:47:49.682Z,9.661500
2023-07-01T00:48:49.648Z,9.661432
2023-07-01T00:49:49.622Z,9.661423
2023-07-01T00:50:49.961Z,9.661479
2023-07-01T00:51:49.637Z,9.661437
2023-07-01T00:52:49.572Z,9.661456
2023-07-01T00:53:49.598Z,9.661538
2023-07-01T00:54:49.591Z,9.661613
2023-07-01T00:55:49.599Z,9.661583
2023-07-01T00:56:49.579Z,9.661615
2023-07-01T00:57:49.572Z,9.661474
2023-07-01T00:58:49.544Z,9.661415
2023-07-01T00:59:49.605Z,9.661602
2023-07-01T01:00:50.639Z,9.661734
2023-07-01T01:01:49.687Z,9.661393
2023-07-01T01:02:49.667Z,9.661485
2023-07-01T01:03:49.586Z,9.661305
2023-07-01T01:04:49.649Z,9.661492
2023-07-01T01:05:49.536Z,9.661553
2023-07-01T01:06:49.498Z,9.661494
2023-07-01T01:07:49.605Z,9.661301
2023-07-01T01:08:49.509Z,9.661014
2023-07-01T01:09:49.542Z,9.661188
2023-07-01T01:10:49.660Z,9.661416
2023-07-01T01:11:49.482Z,9.661425
2023-07-01T01:12:49.489Z,9.661489
2023-07-01T01:13:49.460Z,9.661545
2023-07-01T01:14:49.464Z,9.661476
2023-07-01T01:15:49.577Z,9.661466
2023-07-01T01:16:49.469Z,9.661522
2023-07-01T01:17:49.530Z,9.661566
2023-07-01T01:18:49.483Z,9.661650
2023-07-01T01:19:49.527Z,9.661357
2023-07-01T01:20:49.465Z,9.661502
2023-07-01T01:21:49.416Z,9.661697
2023-07-01T01:22:55.192Z,9.661515
2023-07-01T01:23:51.425Z,9.661354
2023-07-01T01:24:49.453Z,9.661925
2023-07-01T01:25:49.440Z,9.661349
2023-07-01T01:26:49.414Z,9.661706
2023-07-01T01:27:49.404Z,9.661882
2023-07-01T01:28:49.428Z,9.661941
2023-07-01T01:29:49.432Z,9.661841
2023-07-01T01:30:49.503Z,9.661982
2023-07-01T01:31:49.473Z,9.662136
2023-07-01T01:32:49.472Z,9.662562
2023-07-01T01:33:49.374Z,9.662503
2023-07-01T01:34:49.425Z,9.661842
2023-07-01T01:35:49.351Z,9.661707
2023-07-01T01:36:49.363Z,9.661545
2023-07-01T01:37:49.371Z,9.661706
2023-07-01T01:38:49.374Z,9.661780
2023-07-01T01:39:49.365Z,9.661497
2023-07-01T01:40:49.568Z,9.661680
2023-07-01T01:41:49.334Z,9.661615
2023-07-01T01:42:49.327Z,9.661925
2023-07-01T01:43:49.326Z,9.661741
2023-07-01T01:44:49.309Z,9.661239
2023-07-01T01:45:49.329Z,9.661370
2023-07-01T01:46:49.312Z,9.661748
2023-07-01T01:47:49.334Z,9.661628
2023-07-01T01:48:49.269Z,9.661870
2023-07-01T01:49:49.302Z,9.661693
2023-07-01T01:50:49.374Z,9.661718
2023-07-01T01:51:49.291Z,9.661838
2023-07-01T01:52:49.291Z,9.661882
2023-07-01T01:53:49.262Z,9.661504
2023-07-01T01:54:49.269Z,9.661803
2023-07-01T01:55:49.272Z,9.661535
2023-07-01T01:56:49.251Z,9.661474
2023-07-01T01:57:49.258Z,9.661733
2023-07-01T01:58:49.241Z,9.661474
2023-07-01T01:59:49.263Z,9.661520
2023-07-01T02:00:49.753Z,9.661616
2023-07-01T02:01:49.349Z,9.661827
2023-07-01T02:02:49.429Z,9.661557
2023-07-01T02:03:49.363Z,9.661022
2023-07-01T02:04:49.482Z,9.661474
2023-07-01T02:05:49.243Z,9.661698
2023-07-01T02:06:49.211Z,9.661600
2023-07-01T02:07:49.205Z,9.661632
2023-07-01T02:08:49.173Z,9.661705
2023-07-01T02:09:49.210Z,9.661736
2023-07-01T02:10:49.633Z,9.661709
2023-07-01T02:11:49.149Z,9.661811
2023-07-01T02:12:49.142Z,9.661840
2023-07-01T02:13:49.136Z,9.661676
2023-07-01T02:14:49.147Z,9.661592
2023-07-01T02:15:49.176Z,9.661658
2023-07-01T02:16:49.163Z,9.661538
2023-07-01T02:17:49.207Z,9.661687
2023-07-01T02:18:49.125Z,9.661772
2023-07-01T02:19:49.089Z,9.661519
2023-07-01T02:20:49.552Z,9.661895
2023-07-01T02:21:49.135Z,9.661910
2023-07-01T02:22:49.105Z,9.661760
2023-07-01T02:23:49.137Z,9.661742
2023-07-01T02:24:49.064Z,9.661958
2023-07-01T02:25:49.094Z,9.662219
2023-07-01T02:26:50.107Z,9.661835
2023-07-01T02:27:49.035Z,9.661482
2023-07-01T02:28:49.069Z,9.661922
2023-07-01T02:29:49.105Z,9.661613
2023-07-01T02:30:49.272Z,9.661814
2023-07-01T02:31:49.063Z,9.661580
2023-07-01T02:32:49.137Z,9.661661
2023-07-01T02:33:49.002Z,9.661282
2023-07-01T02:34:49.011Z,9.660518
2023-07-01T02:35:49.050Z,9.659717
2023-07-01T02:36:49.039Z,9.659323
2023-07-01T02:37:49.040Z,9.661077
2023-07-01T02:38:48.995Z,9.662034
2023-07-01T02:39:49.037Z,9.661693
2023-07-01T02:40:49.429Z,9.661769
2023-07-01T02:41:49.001Z,9.661635
2023-07-01T02:42:48.989Z,9.661383
2023-07-01T02:43:48.971Z,9.661773
2023-07-01T02:44:49.009Z,9.661777
2023-07-01T02:45:48.985Z,9.661619
2023-07-01T02:46:48.991Z,9.661986
2023-07-01T02:47:49.067Z,9.662006
2023-07-01T02:48:48.928Z,9.661932
2023-07-01T02:49:49.779Z,9.661833
2023-07-01T02:50:50.210Z,9.661036
2023-07-01T02:51:48.918Z,9.660815
2023-07-01T02:52:48.923Z,9.661600
2023-07-01T02:53:48.908Z,9.661487
2023-07-01T02:54:48.923Z,9.661488
2023-07-01T02:55:48.911Z,9.661464
2023-07-01T02:56:48.906Z,9.661435
2023-07-01T02:57:48.941Z,9.661487
2023-07-01T02:58:48.911Z,9.661475
2023-07-01T02:59:48.898Z,9.661508
2023-07-01T03:00:49.075Z,9.661521
2023-07-01T03:01:48.905Z,9.661511
2023-07-01T03:02:48.940Z,9.661460
2023-07-01T03:03:48.956Z,9.661446
2023-07-01T03:04:48.899Z,9.661555
2023-07-01T03:05:48.899Z,9.661549
2023-07-01T03:06:48.892Z,9.661526
2023-07-01T03:07:48.884Z,9.661485
2023-07-01T03:08:48.845Z,9.661511
2023-07-01T03:09:48.818Z,9.661437
2023-07-01T03:10:49.132Z,9.661557
2023-07-01T03:11:48.804Z,9.661462
2023-07-01T03:12:48.832Z,9.661448
2023-07-01T03:13:48.818Z,9.661532
2023-07-01T03:14:48.785Z,9.661584
2023-07-01T03:15:49.048Z,9.661607
2023-07-01T03:16:48.871Z,9.661501
2023-07-01T03:17:48.852Z,9.661499
2023-07-01T03:18:48.819Z,9.661594
2023-07-01T03:19:48.776Z,9.661467
2023-07-01T03:20:49.158Z,9.661586
2023-07-01T03:21:48.796Z,9.661423
2023-07-01T03:22:48.746Z,9.661428
2023-07-01T03:23:48.729Z,9.661572
2023-07-01T03:24:48.797Z,9.661283
2023-07-01T03:25:48.765Z,9.661554
2023-07-01T03:26:48.764Z,9.661583
2023-07-01T03:27:48.723Z,9.661520
2023-07-01T03:28:48.778Z,9.661606
2023-07-01T03:29:48.731Z,9.661459
2023-07-01T03:30:49.063Z,9.661537
2023-07-01T03:31:48.786Z,9.661548
2023-07-01T03:32:48.895Z,9.661530
2023-07-01T03:33:48.703Z,9.661536
2023-07-01T03:34:48.780Z,9.661395
2023-07-01T03:35:48.688Z,9.661449
2023-07-01T03:36:48.688Z,9.661427
2023-07-01T03:37:48.691Z,9.661553
2023-07-01T03:38:48.663Z,9.661446
2023-07-01T03:39:48.681Z,9.661651
2023-07-01T03:40:49.106Z,9.661571
2023-07-01T03:41:48.720Z,9.661397
2023-07-01T03:42:48.714Z,9.661575
2023-07-01T03:43:48.631Z,9.661649
2023-07-01T03:44:48.638Z,9.661650
2023-07-01T03:45:48.747Z,9.661599
2023-07-01T03:46:48.654Z,9.661484
2023-07-01T03:47:48.686Z,9.661435
2023-07-01T03:48:48.627Z,9.661455
2023-07-01T03:49:48.649Z,9.661365
2023-07-01T03:50:48.968Z,9.661614
2023-07-01T03:51:48.631Z,9.661196
2023-07-01T03:52:48.597Z,9.661264
2023-07-01T03:53:48.621Z,9.661452
2023-07-01T03:54:48.642Z,9.661573
2023-07-01T03:55:48.566Z,9.661285
2023-07-01T03:56:48.585Z,9.661240
2023-07-01T03:57:48.603Z,9.661539
2023-07-01T03:58:48.595Z,9.661404
2023-07-01T03:59:48.577Z,9.661045
2023-07-01T04:00:48.788Z,9.661153
2023-07-01T04:01:48.705Z,9.661202
2023-07-01T04:02:48.638Z,9.661675
2023-07-01T04:03:48.608Z,9.661748
2023-07-01T04:04:48.610Z,9.661407
2023-07-01T04:05:48.585Z,9.661651
2023-07-01T04:06:48.553Z,9.661497
2023-07-01T04:07:48.538Z,9.661382
2023-07-01T04:08:48.517Z,9.661364
2023-07-01T04:09:48.582Z,9.661591
2023-07-01T04:10:48.704Z,9.661388
2023-07-01T04:11:48.558Z,9.661437
2023-07-01T04:12:48.576Z,9.661234
2023-07-01T04:13:48.506Z,9.661508
2023-07-01T04:14:48.522Z,9.661210
2023-07-01T04:15:48.490Z,9.661021
2023-07-01T04:16:49.790Z,9.661246
2023-07-01T04:17:48.508Z,9.661252
2023-07-01T04:18:48.467Z,9.661026
2023-07-01T04:19:48.482Z,9.661263
2023-07-01T04:20:48.724Z,9.661588
2023-07-01T04:21:49.167Z,9.661526
2023-07-01T04:22:48.488Z,9.661429
2023-07-01T04:23:48.453Z,9.661392
2023-07-01T04:24:48.729Z,9.661435
2023-07-01T04:25:48.446Z,9.661508
2023-07-01T04:26:48.452Z,9.661310
2023-07-01T04:27:48.450Z,9.661365
2023-07-01T04:28:48.507Z,9.661295
2023-07-01T04:29:48.431Z,9.661356
2023-07-01T04:30:48.620Z,9.661494
2023-07-01T04:31:48.397Z,9.661457
2023-07-01T04:32:48.491Z,9.661461
2023-07-01T04:33:48.400Z,9.661478
2023-07-01T04:34:48.372Z,9.661292
2023-07-01T04:35:48.396Z,9.661356
2023-07-01T04:36:48.388Z,9.661428
2023-07-01T04:37:48.413Z,9.661391
2023-07-01T04:38:48.417Z,9.661346
2023-07-01T04:39:48.381Z,9.661280
2023-07-01T04:40:49.793Z,9.661239
2023-07-01T04:41:48.343Z,9.661132
2023-07-01T04:42:48.344Z,9.661167
2023-07-01T04:43:48.404Z,9.661225
2023-07-01T04:44:48.360Z,9.661171
2023-07-01T04:45:48.424Z,9.661354
2023-07-01T04:46:48.374Z,9.661452
2023-07-01T04:47:48.327Z,9.661527
2023-07-01T04:48:48.312Z,9.661499
2023-07-01T04:49:48.329Z,9.661554
2023-07-01T04:50:48.642Z,9.661532
2023-07-01T04:51:49.339Z,9.661472
2023-07-01T04:52:48.303Z,9.661717
2023-07-01T04:53:48.292Z,9.661416
2023-07-01T04:54:48.274Z,9.661446
2023-07-01T04:55:48.284Z,9.661674
2023-07-01T04:56:48.275Z,9.661490
2023-07-01T04:57:48.458Z,9.661589
2023-07-01T04:58:48.326Z,9.661470
2023-07-01T04:59:48.310Z,9.661367
2023-07-01T05:00:48.631Z,9.661239
2023-07-01T05:01:48.319Z,9.661665
2023-07-01T05:02:48.405Z,9.661676
2023-07-01T05:03:48.380Z,9.661810
2023-07-01T05:04:48.427Z,9.661350
2023-07-01T05:05:48.281Z,9.661531
2023-07-01T05:06:48.252Z,9.661366
2023-07-01T05:07:48.211Z,9.661391
2023-07-01T05:08:48.235Z,9.661380
2023-07-01T05:09:49.214Z,9.661240
2023-07-01T05:10:48.578Z,9.660955
2023-07-01T05:11:48.233Z,9.661431
2023-07-01T05:12:48.216Z,9.661457
2023-07-01T05:13:48.194Z,9.661411
2023-07-01T05:14:48.202Z,9.661469
2023-07-01T05:15:48.202Z,9.661406
2023-07-01T05:16:48.162Z,9.661523
2023-07-01T05:17:48.250Z,9.661579
2023-07-01T05:18:48.184Z,9.661603
2023-07-01T05:19:48.200Z,9.661546
2023-07-01T05:20:48.500Z,9.661483
2023-07-01T05:21:48.144Z,9.661512
2023-07-01T05:22:48.183Z,9.661566
2023-07-01T05:23:48.163Z,9.661668
2023-07-01T05:24:48.108Z,9.661522
2023-07-01T05:25:48.131Z,9.661557
2023-07-01T05:26:48.093Z,9.661560
2023-07-01T05:27:48.108Z,9.661762
2023-07-01T05:28:49.040Z,9.661645
2023-07-01T05:29:48.177Z,9.661466
2023-07-01T05:30:48.368Z,9.661261
2023-07-01T05:31:48.131Z,9.661465
2023-07-01T05:32:48.305Z,9.661634
2023-07-01T05:33:48.111Z,9.661651
2023-07-01T05:34:48.082Z,9.661509
2023-07-01T05:35:48.076Z,9.661431
2023-07-01T05:36:48.077Z,9.661553
2023-07-01T05:37:48.082Z,9.661433
2023-07-01T05:38:48.832Z,9.661669
2023-07-01T05:39:48.114Z,9.661530
2023-07-01T05:40:48.216Z,9.661564
2023-07-01T05:41:48.072Z,9.661509
2023-07-01T05:42:48.016Z,9.661471
2023-07-01T05:43:48.062Z,9.661512
2023-07-01T05:44:49.083Z,9.661512
2023-07-01T05:45:48.079Z,9.661423
2023-07-01T05:46:48.044Z,9.661308
2023-07-01T05:47:48.056Z,9.661315
2023-07-01T05:48:48.021Z,9.661295
2023-07-01T05:49:48.062Z,9.661528
2023-07-01T05:50:48.223Z,9.661460
2023-07-01T05:51:48.019Z,9.661560
2023-07-01T05:52:48.018Z,9.661541
2023-07-01T05:53:47.951Z,9.661396
2023-07-01T05:54:47.999Z,9.661546
2023-07-01T05:55:47.965Z,9.661643
2023-07-01T05:56:47.953Z,9.661536
2023-07-01T05:58:22.200Z,9.661345
2023-07-01T05:58:48.035Z,9.661409
2023-07-01T05:59:48.046Z,9.661574
2023-07-01T06:00:48.227Z,9.661312
2023-07-01T06:01:47.964Z,9.661358
2023-07-01T06:02:48.013Z,9.661520
2023-07-01T06:03:48.009Z,9.661525
2023-07-01T06:04:48.012Z,9.661102
2023-07-01T06:05:47.886Z,9.661715
2023-07-01T06:06:47.930Z,9.661781
2023-07-01T06:07:47.941Z,9.661496
2023-07-01T06:08:47.992Z,9.661538
2023-07-01T06:09:47.933Z,9.661403
2023-07-01T06:10:48.150Z,9.661328
2023-07-01T06:11:47.928Z,9.661627
2023-07-01T06:12:47.867Z,9.661682
2023-07-01T06:13:47.886Z,9.661483
2023-07-01T06:14:47.931Z,9.661350
2023-07-01T06:15:47.832Z,9.661294
2023-07-01T06:16:47.889Z,9.661193
2023-07-01T06:17:47.918Z,9.661328
2023-07-01T06:18:47.840Z,9.661254
2023-07-01T06:19:47.884Z,9.660999
2023-07-01T06:20:47.993Z,9.660971
2023-07-01T06:21:47.859Z,9.661015
2023-07-01T06:22:47.860Z,9.660967
2023-07-01T06:23:47.864Z,9.660949
2023-07-01T06:24:47.843Z,9.661036
2023-07-01T06:25:47.793Z,9.660885
2023-07-01T06:26:47.826Z,9.660933
2023-07-01T06:27:47.789Z,9.660981
2023-07-01T06:28:47.808Z,9.661431
2023-07-01T06:29:47.835Z,9.661548
2023-07-01T06:30:48.140Z,9.661548
2023-07-01T06:31:47.860Z,9.661563
2023-07-01T06:32:47.959Z,9.661466
2023-07-01T06:33:47.797Z,9.661427
2023-07-01T06:34:47.759Z,9.661594
2023-07-01T06:35:47.733Z,9.661432
2023-07-01T06:36:47.754Z,9.661528
2023-07-01T06:37:47.741Z,9.661505
2023-07-01T06:38:47.736Z,9.661529
2023-07-01T06:39:47.744Z,9.661516
2023-07-01T06:40:47.941Z,9.661472
2023-07-01T06:41:47.715Z,9.661667
2023-07-01T06:42:47.706Z,9.661571
2023-07-01T06:43:47.719Z,9.661626
2023-07-01T06:44:47.749Z,9.661481
2023-07-01T06:45:47.737Z,9.661476
2023-07-01T06:46:47.708Z,9.661521
2023-07-01T06:47:47.768Z,9.661649
2023-07-01T06:48:47.671Z,9.661580
2023-07-01T06:49:48.149Z,9.661512
2023-07-01T06:50:47.772Z,9.661627
2023-07-01T06:51:47.689Z,9.661721
2023-07-01T06:52:47.664Z,9.661654
2023-07-01T06:53:47.666Z,9.661412
2023-07-01T06:54:48.857Z,9.661416
2023-07-01T06:55:47.737Z,9.661674
2023-07-01T06:56:47.643Z,9.661926
2023-07-01T06:57:47.716Z,9.661551
2023-07-01T06:58:47.643Z,9.661467
2023-07-01T06:59:47.637Z,9.661463
2023-07-01T07:00:48.032Z,9.661514
2023-07-01T07:01:47.676Z,9.661456
2023-07-01T07:02:47.690Z,9.661493
2023-07-01T07:03:47.638Z,9.661443
2023-07-01T07:04:48.663Z,9.661334
2023-07-01T07:05:47.642Z,9.661368
2023-07-01T07:06:47.607Z,9.661395
2023-07-01T07:07:47.624Z,9.661401
2023-07-01T07:08:47.601Z,9.661435
2023-07-01T07:09:47.624Z,9.661387
2023-07-01T07:10:47.792Z,9.661410
2023-07-01T07:11:47.664Z,9.661492
2023-07-01T07:12:47.558Z,9.661571
2023-07-01T07:13:47.575Z,9.661534
2023-07-01T07:14:47.758Z,9.661572
2023-07-01T07:15:47.594Z,9.661555
2023-07-01T07:16:47.578Z,9.661596
2023-07-01T07:17:47.555Z,9.661561
2023-07-01T07:18:47.708Z,9.661584
2023-07-01T07:19:47.564Z,9.661478
2023-07-01T07:20:47.756Z,9.661412
2023-07-01T07:21:47.507Z,9.661559
2023-07-01T07:22:47.524Z,9.661546
2023-07-01T07:23:47.518Z,9.661355
2023-07-01T07:24:47.526Z,9.661401
2023-07-01T07:25:47.579Z,9.661490
2023-07-01T07:26:47.471Z,9.661454
2023-07-01T07:27:47.536Z,9.661487
2023-07-01T07:28:47.489Z,9.661468
2023-07-01T07:29:47.488Z,9.661413
2023-07-01T07:30:47.565Z,9.661463
2023-07-01T07:31:47.513Z,9.661512
2023-07-01T07:32:47.522Z,9.661517
2023-07-01T07:33:47.473Z,9.661495
2023-07-01T07:34:47.495Z,9.661470
2023-07-01T07:35:47.470Z,9.661512
2023-07-01T07:36:47.429Z,9.661532
2023-07-01T07:37:47.413Z,9.661443
2023-07-01T07:38:47.421Z,9.661505
2023-07-01T07:39:47.432Z,9.661442
2023-07-01T07:40:47.646Z,9.661461
2023-07-01T07:41:47.463Z,9.661446
2023-07-01T07:42:47.414Z,9.661437
2023-07-01T07:43:47.415Z,9.661481
2023-07-01T07:44:47.391Z,9.661539
2023-07-01T07:45:47.409Z,9.661573
2023-07-01T07:46:47.437Z,9.661542
2023-07-01T07:47:47.425Z,9.661498
2023-07-01T07:48:47.524Z,9.661483
2023-07-01T07:49:48.271Z,9.661523
2023-07-01T07:50:47.535Z,9.661478
2023-07-01T07:51:47.387Z,9.661671
2023-07-01T07:52:47.389Z,9.661558
2023-07-01T07:53:47.393Z,9.661561
2023-07-01T07:54:47.318Z,9.661474
2023-07-01T07:55:47.405Z,9.661402
2023-07-01T07:56:47.338Z,9.661460
2023-07-01T07:57:47.380Z,9.661435
2023-07-01T07:58:47.384Z,9.661450
2023-07-01T07:59:47.303Z,9.661519
2023-07-01T08:00:47.673Z,9.661346
2023-07-01T08:01:47.350Z,9.661458
2023-07-01T08:02:47.337Z,9.661405
2023-07-01T08:03:47.387Z,9.661424
2023-07-01T08:04:47.400Z,9.661562
2023-07-01T08:05:47.275Z,9.661548
2023-07-01T08:06:47.342Z,9.661509
2023-07-01T08:07:47.322Z,9.661513
2023-07-01T08:08:47.259Z,9.661440
2023-07-01T08:09:47.297Z,9.661558
2023-07-01T08:10:47.711Z,9.661586
2023-07-01T08:11:47.302Z,9.661478
2023-07-01T08:12:47.306Z,9.661497
2023-07-01T08:13:47.232Z,9.661418
2023-07-01T08:14:47.229Z,9.661309
2023-07-01T08:15:47.216Z,9.661487
2023-07-01T08:16:47.298Z,9.661517
2023-07-01T08:17:47.265Z,9.661602
2023-07-01T08:18:47.286Z,9.661465
2023-07-01T08:19:47.248Z,9.661368
2023-07-01T08:20:47.731Z,9.661318
2023-07-01T08:21:47.252Z,9.661161
2023-07-01T08:22:47.252Z,9.661428
2023-07-01T08:23:47.230Z,9.661457
2023-07-01T08:24:47.243Z,9.661679
2023-07-01T08:25:47.184Z,9.661692
2023-07-01T08:26:47.198Z,9.661660
2023-07-01T08:27:47.179Z,9.661442
2023-07-01T08:28:47.196Z,9.661153
2023-07-01T08:29:47.180Z,9.661180
2023-07-01T08:30:47.647Z,9.661436
2023-07-01T08:31:47.173Z,9.661411
2023-07-01T08:32:47.185Z,9.661528
2023-07-01T08:33:47.135Z,9.661447
2023-07-01T08:34:47.188Z,9.661557
2023-07-01T08:35:47.161Z,9.661456
2023-07-01T08:36:47.156Z,9.661660
2023-07-01T08:37:47.184Z,9.661634
2023-07-01T08:38:47.119Z,9.661560
2023-07-01T08:39:47.113Z,9.661501
2023-07-01T08:40:47.309Z,9.661680
2023-07-01T08:41:47.137Z,9.661529
2023-07-01T08:42:47.085Z,9.661480
2023-07-01T08:43:47.128Z,9.661495
2023-07-01T08:44:47.060Z,9.661506
2023-07-01T08:45:47.104Z,9.661489
2023-07-01T08:46:47.146Z,9.661467
2023-07-01T08:47:47.172Z,9.661446
2023-07-01T08:48:47.117Z,9.661454
2023-07-01T08:49:47.071Z,9.661476
2023-07-01T08:50:47.274Z,9.661467
2023-07-01T08:51:47.108Z,9.661598
2023-07-01T08:52:47.208Z,9.661538
2023-07-01T08:53:47.027Z,9.661526
2023-07-01T08:54:47.078Z,9.661477
2023-07-01T08:55:47.379Z,9.661404
2023-07-01T08:56:47.104Z,9.661469
2023-07-01T08:57:47.029Z,9.661575
2023-07-01T08:58:47.044Z,9.661577
2023-07-01T08:59:47.007Z,9.661604
2023-07-01T09:00:47.039Z,9.661464
2023-07-01T09:01:47.108Z,9.661369
2023-07-01T09:02:47.032Z,9.661257
2023-07-01T09:03:47.174Z,9.661359
2023-07-01T09:04:46.963Z,9.661490
2023-07-01T09:05:47.050Z,9.661365
2023-07-01T09:06:46.983Z,9.661351
2023-07-01T09:07:47.015Z,9.661332
2023-07-01T09:08:47.004Z,9.661276
2023-07-01T09:09:46.976Z,9.661476
2023-07-01T09:10:46.948Z,9.661293
2023-07-01T09:11:46.960Z,9.661287
2023-07-01T09:12:46.973Z,9.661291
2023-07-01T09:13:46.933Z,9.661220
2023-07-01T09:14:46.953Z,9.661279
2023-07-01T09:15:47.193Z,9.661293
2023-07-01T09:16:46.984Z,9.661139
2023-07-01T09:17:46.976Z,9.661148
2023-07-01T09:18:46.923Z,9.661174
2023-07-01T09:19:46.927Z,9.661229
2023-07-01T09:20:46.943Z,9.661222
2023-07-01T09:21:46.878Z,9.661038
2023-07-01T09:22:47.052Z,9.661158
2023-07-01T09:23:46.876Z,9.661073
2023-07-01T09:24:46.864Z,9.660804
2023-07-01T09:25:47.108Z,9.660859
2023-07-01T09:26:46.910Z,9.661306
2023-07-01T09:27:46.883Z,9.661244
2023-07-01T09:28:46.845Z,9.661511
2023-07-01T09:29:46.863Z,9.661549
2023-07-01T09:30:46.867Z,9.661573
2023-07-01T09:31:46.884Z,9.661786
2023-07-01T09:32:46.957Z,9.661614
2023-07-01T09:33:46.834Z,9.661650
2023-07-01T09:34:46.827Z,9.661498
2023-07-01T09:35:47.172Z,9.661642
2023-07-01T09:36:46.801Z,9.661525
2023-07-01T09:37:46.818Z,9.661668
2023-07-01T09:38:46.839Z,9.661878
2023-07-01T09:39:46.795Z,9.661735
2023-07-01T09:40:46.765Z,9.661644
2023-07-01T09:41:46.795Z,9.661596
2023-07-01T09:42:46.765Z,9.661662
2023-07-01T09:43:46.859Z,9.661516
2023-07-01T09:44:46.756Z,9.661674
2023-07-01T09:45:47.004Z,9.661544
2023-07-01T09:46:46.737Z,9.661562
2023-07-01T09:47:46.821Z,9.661559
2023-07-01T09:48:46.750Z,9.661619
2023-07-01T09:49:46.818Z,9.661597
2023-07-01T09:50:46.725Z,9.661567
2023-07-01T09:51:46.740Z,9.661597
2023-07-01T09:52:46.774Z,9.661528
2023-07-01T09:53:47.606Z,9.661587
2023-07-01T09:54:46.756Z,9.661564
2023-07-01T09:55:46.868Z,9.661582
2023-07-01T09:56:46.729Z,9.661660
2023-07-01T09:57:46.700Z,9.661530
2023-07-01T09:58:46.696Z,9.661564
2023-07-01T09:59:46.692Z,9.661477
2023-07-01T10:00:47.691Z,9.661437
2023-07-01T10:01:46.889Z,9.661494
2023-07-01T10:02:46.942Z,9.661474
2023-07-01T10:03:47.036Z,9.661402
2023-07-01T10:04:46.816Z,9.661446
2023-07-01T10:05:47.010Z,9.661531
2023-07-01T10:06:46.699Z,9.661506
2023-07-01T10:07:46.791Z,9.661584
2023-07-01T10:08:46.720Z,9.661548
2023-07-01T10:09:46.736Z,9.661477
2023-07-01T10:10:46.656Z,9.661327
2023-07-01T10:11:46.618Z,9.661427
2023-07-01T10:12:46.637Z,9.661428
2023-07-01T10:13:46.611Z,9.661563
2023-07-01T10:14:46.653Z,9.661621
2023-07-01T10:15:46.937Z,9.661731
2023-07-01T10:16:46.729Z,9.661663
2023-07-01T10:17:46.741Z,9.661518
2023-07-01T10:18:46.601Z,9.661375
2023-07-01T10:19:46.603Z,9.661699
2023-07-01T10:20:46.866Z,9.661769
2023-07-01T10:21:47.438Z,9.661715
2023-07-01T10:22:46.593Z,9.661650
2023-07-01T10:23:46.777Z,9.661308
2023-07-01T10:24:51.197Z,9.661145
2023-07-01T10:25:50.109Z,9.661210
2023-07-01T10:26:46.713Z,9.661374
2023-07-01T10:27:46.604Z,9.661093
2023-07-01T10:28:46.583Z,9.661184
2023-07-01T10:29:46.549Z,9.661400
2023-07-01T10:30:46.579Z,9.661187
2023-07-01T10:31:46.550Z,9.661077
2023-07-01T10:32:46.609Z,9.661301
2023-07-01T10:33:46.557Z,9.661403
2023-07-01T10:34:46.548Z,9.661332
2023-07-01T10:35:46.700Z,9.661190
2023-07-01T10:36:46.513Z,9.661303
2023-07-01T10:37:46.578Z,9.661316
2023-07-01T10:38:46.585Z,9.661449
2023-07-01T10:39:46.550Z,9.661508
2023-07-01T10:40:46.498Z,9.661484
2023-07-01T10:41:46.525Z,9.661423
2023-07-01T10:42:46.514Z,9.661605
2023-07-01T10:43:46.493Z,9.661528
2023-07-01T10:44:46.468Z,9.661862
2023-07-01T10:45:46.865Z,9.661701
2023-07-01T10:46:46.544Z,9.661740
2023-07-01T10:47:46.524Z,9.661622
2023-07-01T10:48:46.508Z,9.661387
2023-07-01T10:49:46.499Z,9.661473
2023-07-01T10:50:46.482Z,9.662108
2023-07-01T10:51:46.474Z,9.661501
2023-07-01T10:52:46.449Z,9.661454
2023-07-01T10:53:46.492Z,9.661530
2023-07-01T10:54:46.479Z,9.661565
2023-07-01T10:55:47.233Z,9.661571
2023-07-01T10:56:46.410Z,9.661581
2023-07-01T10:57:46.467Z,9.661535
2023-07-01T10:58:46.439Z,9.661411
2023-07-01T10:59:46.394Z,9.661425
2023-07-01T11:00:46.513Z,9.661348
2023-07-01T11:01:46.481Z,9.661353
2023-07-01T11:02:46.437Z,9.661033
2023-07-01T11:03:46.452Z,9.660973
2023-07-01T11:04:46.468Z,9.660640
2023-07-01T11:05:46.388Z,9.660840
2023-07-01T11:06:46.360Z,9.660357
2023-07-01T11:07:46.400Z,9.660364
2023-07-01T11:08:46.374Z,9.659989
2023-07-01T11:09:46.364Z,9.659432
2023-07-01T11:10:46.389Z,9.659788
2023-07-01T11:11:46.370Z,9.659339
2023-07-01T11:12:47.062Z,9.658836
2023-07-01T11:13:47.324Z,9.659622
2023-07-01T11:14:46.323Z,9.658963
2023-07-01T11:15:46.527Z,9.658860
2023-07-01T11:16:46.615Z,9.659178
2023-07-01T11:17:46.496Z,9.659493
2023-07-01T11:18:46.322Z,9.659698
2023-07-01T11:19:46.297Z,9.660147
2023-07-01T11:20:46.311Z,9.659920
2023-07-01T11:21:46.343Z,9.660248
2023-07-01T11:22:46.333Z,9.661070
2023-07-01T11:23:46.267Z,9.660011
2023-07-01T11:24:46.346Z,9.660786
2023-07-01T11:25:46.405Z,9.661240
2023-07-01T11:26:46.276Z,9.661274
2023-07-01T11:27:46.310Z,9.661315
2023-07-01T11:28:46.250Z,9.661428
2023-07-01T11:29:46.269Z,9.661620
2023-07-01T11:30:46.245Z,9.661689
2023-07-01T11:31:46.306Z,9.661568
2023-07-01T11:32:46.292Z,9.661437
2023-07-01T11:33:46.261Z,9.661145
2023-07-01T11:34:46.277Z,9.660565
2023-07-01T11:35:46.332Z,9.660261
2023-07-01T11:36:46.220Z,9.660254
2023-07-01T11:37:46.249Z,9.660596
2023-07-01T11:38:46.254Z,9.660909
2023-07-01T11:39:46.205Z,9.661082
2023-07-01T11:40:46.201Z,9.661224
2023-07-01T11:41:46.209Z,9.661125
2023-07-01T11:42:46.210Z,9.660976
2023-07-01T11:43:46.194Z,9.660976
2023-07-01T11:44:46.157Z,9.660976